Terminal Aerodrome Forecast
Issued by NWS Northern Indiana

Home | Current Version | Previous Version | Text Only | Print | Product List | Glossary Off
Versions: 1 2 3 4 5 6 7 8 9 10 11 12 13 14 15 16 17

988
FTUS43 KIWX 251131
TAFFWA
TAF
KFWA 251131Z 2512/2612 26015G23KT P6SM SCT020 BKN040
      TEMPO 2512/2516 4SM -SHSN OVC030
     FM260200 28012KT P6SM BKN035
     FM261000 26006KT P6SM SCT140=

USA.gov is the U.S. government's official web portal to all federal, state and local government web resources and services.